sensor_id;sensor_type;location;lat;lon;timestamp;P1;durP1;ratioP1;P2;durP2;ratioP2
21356;SDS011;10836;53.068;18.234;2023-02-26T00:01:23;6.43;;;1.80;;
21356;SDS011;10836;53.068;18.234;2023-02-26T00:03:54;4.50;;;1.77;;
21356;SDS011;10836;53.068;18.234;2023-02-26T00:06:23;3.87;;;1.93;;
21356;SDS011;10836;53.068;18.234;2023-02-26T00:08:52;6.30;;;1.70;;
21356;SDS011;10836;53.068;18.234;2023-02-26T00:11:20;4.57;;;1.63;;
21356;SDS011;10836;53.068;18.234;2023-02-26T00:13:47;4.40;;;1.40;;
21356;SDS011;10836;53.068;18.234;2023-02-26T00:19:00;6.40;;;1.53;;
21356;SDS011;10836;53.068;18.234;2023-02-26T00:21:30;4.07;;;1.63;;
21356;SDS011;10836;53.068;18.234;2023-02-26T00:23:58;4.20;;;1.80;;
21356;SDS011;10836;53.068;18.234;2023-02-26T00:26:27;5.47;;;1.63;;
21356;SDS011;10836;53.068;18.234;2023-02-26T00:28:55;3.80;;;1.80;;
21356;SDS011;10836;53.068;18.234;2023-02-26T00:31:23;4.47;;;1.80;;
21356;SDS011;10836;53.068;18.234;2023-02-26T00:33:51;4.93;;;2.43;;
21356;SDS011;10836;53.068;18.234;2023-02-26T00:41:52;3.63;;;1.57;;
21356;SDS011;10836;53.068;18.234;2023-02-26T00:44:19;4.30;;;1.50;;
21356;SDS011;10836;53.068;18.234;2023-02-26T00:49:21;5.10;;;1.53;;
21356;SDS011;10836;53.068;18.234;2023-02-26T00:52:19;3.30;;;1.57;;
21356;SDS011;10836;53.068;18.234;2023-02-26T00:54:54;3.93;;;1.60;;
21356;SDS011;10836;53.068;18.234;2023-02-26T00:57:21;4.37;;;1.63;;
21356;SDS011;10836;53.068;18.234;2023-02-26T00:59:48;6.37;;;2.73;;
21356;SDS011;10836;53.068;18.234;2023-02-26T01:02:15;4.83;;;1.90;;
21356;SDS011;10836;53.068;18.234;2023-02-26T01:04:42;4.07;;;1.70;;
21356;SDS011;10836;53.068;18.234;2023-02-26T01:07:09;6.13;;;1.73;;
21356;SDS011;10836;53.068;18.234;2023-02-26T01:09:36;8.20;;;2.10;;
21356;SDS011;10836;53.068;18.234;2023-02-26T01:12:08;4.00;;;1.80;;
21356;SDS011;10836;53.068;18.234;2023-02-26T01:14:39;4.03;;;1.67;;
21356;SDS011;10836;53.068;18.234;2023-02-26T01:19:54;2.43;;;1.10;;
21356;SDS011;10836;53.068;18.234;2023-02-26T01:27:54;3.53;;;1.43;;
21356;SDS011;10836;53.068;18.234;2023-02-26T01:30:25;5.77;;;1.60;;
21356;SDS011;10836;53.068;18.234;2023-02-26T01:35:39;4.53;;;1.40;;
21356;SDS011;10836;53.068;18.234;2023-02-26T01:43:45;2.77;;;1.37;;
21356;SDS011;10836;53.068;18.234;2023-02-26T01:48:55;3.77;;;1.40;;
21356;SDS011;10836;53.068;18.234;2023-02-26T01:51:39;3.40;;;1.30;;
21356;SDS011;10836;53.068;18.234;2023-02-26T01:54:15;3.23;;;1.40;;
21356;SDS011;10836;53.068;18.234;2023-02-26T01:56:49;6.20;;;1.30;;
21356;SDS011;10836;53.068;18.234;2023-02-26T01:59:20;1.53;;;1.07;;
21356;SDS011;10836;53.068;18.234;2023-02-26T02:01:51;6.03;;;1.30;;
21356;SDS011;10836;53.068;18.234;2023-02-26T02:04:20;2.63;;;1.30;;
21356;SDS011;10836;53.068;18.234;2023-02-26T02:06:49;2.63;;;1.50;;
21356;SDS011;10836;53.068;18.234;2023-02-26T02:09:16;3.77;;;1.40;;
21356;SDS011;10836;53.068;18.234;2023-02-26T02:12:01;2.70;;;1.20;;
21356;SDS011;10836;53.068;18.234;2023-02-26T02:19:51;4.43;;;1.30;;
21356;SDS011;10836;53.068;18.234;2023-02-26T02:25:19;2.80;;;1.20;;
21356;SDS011;10836;53.068;18.234;2023-02-26T02:28:08;2.40;;;0.90;;
21356;SDS011;10836;53.068;18.234;2023-02-26T02:33:50;3.57;;;1.30;;
21356;SDS011;10836;53.068;18.234;2023-02-26T02:39:12;2.53;;;0.83;;
21356;SDS011;10836;53.068;18.234;2023-02-26T02:41:46;2.97;;;1.27;;
21356;SDS011;10836;53.068;18.234;2023-02-26T02:44:21;1.57;;;0.90;;
21356;SDS011;10836;53.068;18.234;2023-02-26T02:46:52;2.53;;;0.80;;
21356;SDS011;10836;53.068;18.234;2023-02-26T02:54:53;2.37;;;1.10;;
21356;SDS011;10836;53.068;18.234;2023-02-26T02:57:30;5.03;;;1.10;;
21356;SDS011;10836;53.068;18.234;2023-02-26T03:00:04;3.50;;;1.13;;
21356;SDS011;10836;53.068;18.234;2023-02-26T03:02:39;1.30;;;0.90;;
21356;SDS011;10836;53.068;18.234;2023-02-26T03:05:09;3.83;;;1.60;;
21356;SDS011;10836;53.068;18.234;2023-02-26T03:07:38;2.40;;;1.10;;
21356;SDS011;10836;53.068;18.234;2023-02-26T03:10:18;1.23;;;0.70;;
21356;SDS011;10836;53.068;18.234;2023-02-26T03:12:45;2.43;;;1.10;;
21356;SDS011;10836;53.068;18.234;2023-02-26T03:15:13;1.43;;;0.90;;
21356;SDS011;10836;53.068;18.234;2023-02-26T03:17:50;2.27;;;0.80;;
21356;SDS011;10836;53.068;18.234;2023-02-26T03:20:28;1.97;;;1.00;;
21356;SDS011;10836;53.068;18.234;2023-02-26T03:23:15;2.30;;;0.90;;
21356;SDS011;10836;53.068;18.234;2023-02-26T03:26:01;3.10;;;0.90;;
21356;SDS011;10836;53.068;18.234;2023-02-26T03:28:49;1.97;;;1.10;;
21356;SDS011;10836;53.068;18.234;2023-02-26T03:31:40;3.57;;;0.97;;
21356;SDS011;10836;53.068;18.234;2023-02-26T03:34:31;3.93;;;1.00;;
21356;SDS011;10836;53.068;18.234;2023-02-26T03:37:07;7.13;;;1.30;;
21356;SDS011;10836;53.068;18.234;2023-02-26T03:39:42;2.53;;;0.83;;
21356;SDS011;10836;53.068;18.234;2023-02-26T03:42:46;3.73;;;1.00;;
21356;SDS011;10836;53.068;18.234;2023-02-26T03:45:39;1.90;;;0.80;;
21356;SDS011;10836;53.068;18.234;2023-02-26T03:48:08;2.90;;;1.07;;
21356;SDS011;10836;53.068;18.234;2023-02-26T03:50:45;4.33;;;1.40;;
21356;SDS011;10836;53.068;18.234;2023-02-26T03:53:51;1.60;;;0.90;;
21356;SDS011;10836;53.068;18.234;2023-02-26T03:56:25;6.30;;;2.93;;
21356;SDS011;10836;53.068;18.234;2023-02-26T03:59:43;3.80;;;1.00;;
21356;SDS011;10836;53.068;18.234;2023-02-26T04:02:41;1.80;;;0.83;;
21356;SDS011;10836;53.068;18.234;2023-02-26T04:05:20;3.10;;;0.90;;
21356;SDS011;10836;53.068;18.234;2023-02-26T04:07:51;2.30;;;0.90;;
21356;SDS011;10836;53.068;18.234;2023-02-26T04:10:20;3.70;;;0.90;;
21356;SDS011;10836;53.068;18.234;2023-02-26T04:12:59;4.30;;;0.77;;
21356;SDS011;10836;53.068;18.234;2023-02-26T04:15:27;3.83;;;0.93;;
21356;SDS011;10836;53.068;18.234;2023-02-26T04:17:55;3.27;;;0.90;;
21356;SDS011;10836;53.068;18.234;2023-02-26T04:20:22;7.17;;;1.17;;
21356;SDS011;10836;53.068;18.234;2023-02-26T04:22:49;2.77;;;0.90;;
21356;SDS011;10836;53.068;18.234;2023-02-26T04:25:20;1.50;;;0.77;;
21356;SDS011;10836;53.068;18.234;2023-02-26T04:27:48;3.70;;;0.97;;
21356;SDS011;10836;53.068;18.234;2023-02-26T04:30:16;3.73;;;1.30;;
21356;SDS011;10836;53.068;18.234;2023-02-26T04:32:43;7.23;;;1.00;;
21356;SDS011;10836;53.068;18.234;2023-02-26T04:35:12;2.37;;;1.20;;
21356;SDS011;10836;53.068;18.234;2023-02-26T04:37:40;9.63;;;1.70;;
21356;SDS011;10836;53.068;18.234;2023-02-26T04:40:07;3.27;;;1.00;;
21356;SDS011;10836;53.068;18.234;2023-02-26T04:42:36;2.23;;;0.90;;
21356;SDS011;10836;53.068;18.234;2023-02-26T04:45:03;4.30;;;1.20;;
21356;SDS011;10836;53.068;18.234;2023-02-26T04:47:33;4.63;;;1.30;;
21356;SDS011;10836;53.068;18.234;2023-02-26T04:50:00;4.77;;;1.07;;
21356;SDS011;10836;53.068;18.234;2023-02-26T04:52:29;6.07;;;2.03;;
21356;SDS011;10836;53.068;18.234;2023-02-26T04:54:57;4.43;;;1.30;;
21356;SDS011;10836;53.068;18.234;2023-02-26T04:57:24;4.23;;;1.53;;
21356;SDS011;10836;53.068;18.234;2023-02-26T04:59:51;3.87;;;1.50;;
21356;SDS011;10836;53.068;18.234;2023-02-26T05:02:21;4.67;;;1.70;;
21356;SDS011;10836;53.068;18.234;2023-02-26T05:04:51;5.83;;;1.90;;
21356;SDS011;10836;53.068;18.234;2023-02-26T05:07:18;6.60;;;1.40;;
21356;SDS011;10836;53.068;18.234;2023-02-26T05:09:48;5.33;;;1.73;;
21356;SDS011;10836;53.068;18.234;2023-02-26T05:12:15;5.47;;;1.40;;
21356;SDS011;10836;53.068;18.234;2023-02-26T05:14:42;3.73;;;1.50;;
21356;SDS011;10836;53.068;18.234;2023-02-26T05:17:09;2.10;;;1.07;;
21356;SDS011;10836;53.068;18.234;2023-02-26T05:19:35;4.37;;;1.47;;
21356;SDS011;10836;53.068;18.234;2023-02-26T05:22:03;2.97;;;0.97;;
21356;SDS011;10836;53.068;18.234;2023-02-26T05:24:30;3.77;;;1.93;;
21356;SDS011;10836;53.068;18.234;2023-02-26T05:26:59;6.30;;;1.10;;
21356;SDS011;10836;53.068;18.234;2023-02-26T05:29:26;3.43;;;1.10;;
21356;SDS011;10836;53.068;18.234;2023-02-26T05:31:53;4.47;;;2.07;;
21356;SDS011;10836;53.068;18.234;2023-02-26T05:34:20;4.07;;;0.90;;
21356;SDS011;10836;53.068;18.234;2023-02-26T05:36:47;1.23;;;0.97;;
21356;SDS011;10836;53.068;18.234;2023-02-26T05:39:14;3.93;;;0.80;;
21356;SDS011;10836;53.068;18.234;2023-02-26T05:41:41;2.03;;;0.90;;
21356;SDS011;10836;53.068;18.234;2023-02-26T05:44:08;1.77;;;1.00;;
21356;SDS011;10836;53.068;18.234;2023-02-26T05:46:35;7.30;;;1.60;;
21356;SDS011;10836;53.068;18.234;2023-02-26T05:49:02;1.07;;;0.67;;
21356;SDS011;10836;53.068;18.234;2023-02-26T05:51:29;2.60;;;1.10;;
21356;SDS011;10836;53.068;18.234;2023-02-26T05:53:56;4.23;;;1.10;;
21356;SDS011;10836;53.068;18.234;2023-02-26T05:56:23;2.47;;;1.17;;
21356;SDS011;10836;53.068;18.234;2023-02-26T05:58:50;2.57;;;1.10;;
21356;SDS011;10836;53.068;18.234;2023-02-26T06:01:17;1.17;;;0.87;;
21356;SDS011;10836;53.068;18.234;2023-02-26T06:03:44;4.77;;;1.27;;
21356;SDS011;10836;53.068;18.234;2023-02-26T06:06:12;4.13;;;1.40;;
21356;SDS011;10836;53.068;18.234;2023-02-26T06:08:41;3.50;;;1.10;;
21356;SDS011;10836;53.068;18.234;2023-02-26T06:11:08;4.70;;;1.10;;
21356;SDS011;10836;53.068;18.234;2023-02-26T06:13:35;3.23;;;1.13;;
21356;SDS011;10836;53.068;18.234;2023-02-26T06:16:02;5.80;;;1.30;;
21356;SDS011;10836;53.068;18.234;2023-02-26T06:18:29;2.50;;;1.10;;
21356;SDS011;10836;53.068;18.234;2023-02-26T06:20:58;3.10;;;1.20;;
21356;SDS011;10836;53.068;18.234;2023-02-26T06:23:25;2.50;;;1.30;;
21356;SDS011;10836;53.068;18.234;2023-02-26T06:25:53;2.63;;;1.43;;
21356;SDS011;10836;53.068;18.234;2023-02-26T06:28:20;2.23;;;1.13;;
21356;SDS011;10836;53.068;18.234;2023-02-26T06:30:47;3.00;;;1.00;;
21356;SDS011;10836;53.068;18.234;2023-02-26T06:33:14;2.30;;;1.20;;
21356;SDS011;10836;53.068;18.234;2023-02-26T06:35:41;3.57;;;1.20;;
21356;SDS011;10836;53.068;18.234;2023-02-26T06:38:08;3.40;;;1.00;;
21356;SDS011;10836;53.068;18.234;2023-02-26T06:40:35;2.07;;;0.90;;
21356;SDS011;10836;53.068;18.234;2023-02-26T06:43:02;2.37;;;1.40;;
21356;SDS011;10836;53.068;18.234;2023-02-26T06:45:29;2.50;;;1.30;;
21356;SDS011;10836;53.068;18.234;2023-02-26T06:47:57;4.30;;;0.87;;
21356;SDS011;10836;53.068;18.234;2023-02-26T06:50:24;4.43;;;1.10;;
21356;SDS011;10836;53.068;18.234;2023-02-26T06:52:50;2.70;;;0.97;;
21356;SDS011;10836;53.068;18.234;2023-02-26T06:55:18;3.53;;;1.17;;
21356;SDS011;10836;53.068;18.234;2023-02-26T06:57:47;4.07;;;1.50;;
21356;SDS011;10836;53.068;18.234;2023-02-26T07:00:15;3.70;;;1.00;;
21356;SDS011;10836;53.068;18.234;2023-02-26T07:02:42;1.23;;;0.80;;
21356;SDS011;10836;53.068;18.234;2023-02-26T07:05:09;3.47;;;1.37;;
21356;SDS011;10836;53.068;18.234;2023-02-26T07:07:35;3.30;;;1.30;;
21356;SDS011;10836;53.068;18.234;2023-02-26T07:10:03;2.50;;;1.27;;
21356;SDS011;10836;53.068;18.234;2023-02-26T07:12:30;3.30;;;1.30;;
21356;SDS011;10836;53.068;18.234;2023-02-26T07:14:57;4.03;;;1.33;;
21356;SDS011;10836;53.068;18.234;2023-02-26T07:17:24;2.50;;;1.20;;
21356;SDS011;10836;53.068;18.234;2023-02-26T07:19:51;4.70;;;1.47;;
21356;SDS011;10836;53.068;18.234;2023-02-26T07:22:18;3.37;;;1.97;;
21356;SDS011;10836;53.068;18.234;2023-02-26T07:24:48;6.57;;;2.40;;
21356;SDS011;10836;53.068;18.234;2023-02-26T07:27:15;10.13;;;2.10;;
21356;SDS011;10836;53.068;18.234;2023-02-26T07:29:42;7.40;;;1.87;;
21356;SDS011;10836;53.068;18.234;2023-02-26T07:32:09;5.37;;;1.97;;
21356;SDS011;10836;53.068;18.234;2023-02-26T07:34:36;5.90;;;1.70;;
21356;SDS011;10836;53.068;18.234;2023-02-26T07:37:03;5.00;;;1.80;;
21356;SDS011;10836;53.068;18.234;2023-02-26T07:39:30;4.63;;;1.63;;
21356;SDS011;10836;53.068;18.234;2023-02-26T07:41:57;5.73;;;1.90;;
21356;SDS011;10836;53.068;18.234;2023-02-26T07:44:27;4.07;;;2.07;;
21356;SDS011;10836;53.068;18.234;2023-02-26T07:46:54;5.73;;;1.80;;
21356;SDS011;10836;53.068;18.234;2023-02-26T07:49:21;6.83;;;2.23;;
21356;SDS011;10836;53.068;18.234;2023-02-26T07:51:48;6.00;;;2.13;;
21356;SDS011;10836;53.068;18.234;2023-02-26T07:54:15;4.17;;;2.43;;
21356;SDS011;10836;53.068;18.234;2023-02-26T07:56:42;2.77;;;1.50;;
21356;SDS011;10836;53.068;18.234;2023-02-26T07:59:10;5.03;;;1.83;;
21356;SDS011;10836;53.068;18.234;2023-02-26T08:01:37;4.83;;;1.80;;
21356;SDS011;10836;53.068;18.234;2023-02-26T08:04:04;4.40;;;2.20;;
21356;SDS011;10836;53.068;18.234;2023-02-26T08:06:31;7.50;;;1.67;;
21356;SDS011;10836;53.068;18.234;2023-02-26T08:08:58;5.67;;;1.77;;
21356;SDS011;10836;53.068;18.234;2023-02-26T08:11:25;8.03;;;2.30;;
21356;SDS011;10836;53.068;18.234;2023-02-26T08:13:52;5.00;;;2.00;;
21356;SDS011;10836;53.068;18.234;2023-02-26T08:16:19;7.60;;;1.87;;
21356;SDS011;10836;53.068;18.234;2023-02-26T08:18:47;3.87;;;2.00;;
21356;SDS011;10836;53.068;18.234;2023-02-26T08:21:13;3.93;;;2.03;;
21356;SDS011;10836;53.068;18.234;2023-02-26T08:23:40;3.83;;;2.13;;
21356;SDS011;10836;53.068;18.234;2023-02-26T08:26:08;4.73;;;1.67;;
21356;SDS011;10836;53.068;18.234;2023-02-26T08:28:36;4.17;;;1.70;;
21356;SDS011;10836;53.068;18.234;2023-02-26T08:31:03;6.43;;;1.93;;
21356;SDS011;10836;53.068;18.234;2023-02-26T08:33:31;4.77;;;1.90;;
21356;SDS011;10836;53.068;18.234;2023-02-26T08:35:59;4.27;;;1.77;;
21356;SDS011;10836;53.068;18.234;2023-02-26T08:38:27;7.90;;;2.40;;
21356;SDS011;10836;53.068;18.234;2023-02-26T08:40:55;6.23;;;2.20;;
21356;SDS011;10836;53.068;18.234;2023-02-26T08:43:23;5.87;;;2.57;;
21356;SDS011;10836;53.068;18.234;2023-02-26T08:45:51;6.90;;;2.20;;
21356;SDS011;10836;53.068;18.234;2023-02-26T08:48:19;6.37;;;1.90;;
21356;SDS011;10836;53.068;18.234;2023-02-26T08:50:46;13.13;;;2.60;;
21356;SDS011;10836;53.068;18.234;2023-02-26T08:53:13;6.73;;;2.53;;
21356;SDS011;10836;53.068;18.234;2023-02-26T08:55:40;3.87;;;2.27;;
21356;SDS011;10836;53.068;18.234;2023-02-26T08:58:10;6.30;;;2.03;;
21356;SDS011;10836;53.068;18.234;2023-02-26T09:00:37;9.77;;;2.70;;
21356;SDS011;10836;53.068;18.234;2023-02-26T09:03:04;8.57;;;2.90;;
21356;SDS011;10836;53.068;18.234;2023-02-26T09:05:31;8.50;;;2.07;;
21356;SDS011;10836;53.068;18.234;2023-02-26T09:07:58;7.53;;;2.03;;
21356;SDS011;10836;53.068;18.234;2023-02-26T09:10:25;7.60;;;2.37;;
21356;SDS011;10836;53.068;18.234;2023-02-26T09:12:52;15.10;;;2.77;;
21356;SDS011;10836;53.068;18.234;2023-02-26T09:15:19;6.47;;;1.90;;
21356;SDS011;10836;53.068;18.234;2023-02-26T09:17:47;6.93;;;2.93;;
21356;SDS011;10836;53.068;18.234;2023-02-26T09:20:14;8.07;;;2.30;;
21356;SDS011;10836;53.068;18.234;2023-02-26T09:22:42;9.97;;;2.20;;
21356;SDS011;10836;53.068;18.234;2023-02-26T09:25:09;8.73;;;2.10;;
21356;SDS011;10836;53.068;18.234;2023-02-26T09:27:36;5.37;;;2.37;;
21356;SDS011;10836;53.068;18.234;2023-02-26T09:30:04;10.10;;;2.60;;
21356;SDS011;10836;53.068;18.234;2023-02-26T09:32:31;5.73;;;2.00;;
21356;SDS011;10836;53.068;18.234;2023-02-26T09:34:59;4.90;;;1.97;;
21356;SDS011;10836;53.068;18.234;2023-02-26T09:37:26;5.13;;;2.17;;
21356;SDS011;10836;53.068;18.234;2023-02-26T09:39:53;7.80;;;1.87;;
21356;SDS011;10836;53.068;18.234;2023-02-26T09:45:39;4.53;;;1.60;;
21356;SDS011;10836;53.068;18.234;2023-02-26T09:48:11;9.23;;;2.10;;
21356;SDS011;10836;53.068;18.234;2023-02-26T09:53:25;4.90;;;1.87;;
21356;SDS011;10836;53.068;18.234;2023-02-26T09:56:17;9.43;;;2.00;;
21356;SDS011;10836;53.068;18.234;2023-02-26T09:58:45;5.53;;;1.57;;
21356;SDS011;10836;53.068;18.234;2023-02-26T10:04:16;7.87;;;2.73;;
21356;SDS011;10836;53.068;18.234;2023-02-26T10:12:40;6.00;;;1.70;;
21356;SDS011;10836;53.068;18.234;2023-02-26T10:15:11;5.23;;;1.73;;
21356;SDS011;10836;53.068;18.234;2023-02-26T10:20:26;8.60;;;1.50;;
21356;SDS011;10836;53.068;18.234;2023-02-26T10:23:04;6.97;;;1.67;;
21356;SDS011;10836;53.068;18.234;2023-02-26T10:28:46;8.53;;;2.07;;
21356;SDS011;10836;53.068;18.234;2023-02-26T10:31:26;4.80;;;1.40;;
21356;SDS011;10836;53.068;18.234;2023-02-26T10:34:10;5.43;;;2.50;;
21356;SDS011;10836;53.068;18.234;2023-02-26T10:36:57;5.40;;;1.53;;
21356;SDS011;10836;53.068;18.234;2023-02-26T10:39:52;7.13;;;1.80;;
21356;SDS011;10836;53.068;18.234;2023-02-26T10:42:25;8.07;;;1.97;;
21356;SDS011;10836;53.068;18.234;2023-02-26T10:50:34;5.37;;;1.10;;
21356;SDS011;10836;53.068;18.234;2023-02-26T10:53:02;8.43;;;2.23;;
21356;SDS011;10836;53.068;18.234;2023-02-26T10:58:48;6.43;;;1.60;;
21356;SDS011;10836;53.068;18.234;2023-02-26T11:01:18;5.37;;;1.70;;
21356;SDS011;10836;53.068;18.234;2023-02-26T11:03:47;9.20;;;1.63;;
21356;SDS011;10836;53.068;18.234;2023-02-26T11:06:21;3.80;;;1.20;;
21356;SDS011;10836;53.068;18.234;2023-02-26T11:09:51;8.00;;;1.80;;
21356;SDS011;10836;53.068;18.234;2023-02-26T11:12:05;9.70;;;1.90;;
21356;SDS011;10836;53.068;18.234;2023-02-26T11:14:39;4.57;;;1.40;;
21356;SDS011;10836;53.068;18.234;2023-02-26T11:17:12;6.77;;;1.40;;
21356;SDS011;10836;53.068;18.234;2023-02-26T11:19:48;9.70;;;1.47;;
21356;SDS011;10836;53.068;18.234;2023-02-26T11:22:18;3.33;;;1.27;;
21356;SDS011;10836;53.068;18.234;2023-02-26T11:24:47;6.57;;;1.40;;
21356;SDS011;10836;53.068;18.234;2023-02-26T11:27:21;6.83;;;1.33;;
21356;SDS011;10836;53.068;18.234;2023-02-26T11:29:56;7.00;;;1.30;;
21356;SDS011;10836;53.068;18.234;2023-02-26T11:32:35;4.50;;;1.13;;
21356;SDS011;10836;53.068;18.234;2023-02-26T11:35:06;6.67;;;1.30;;
21356;SDS011;10836;53.068;18.234;2023-02-26T11:37:35;8.67;;;1.60;;
21356;SDS011;10836;53.068;18.234;2023-02-26T11:40:17;5.00;;;1.40;;
21356;SDS011;10836;53.068;18.234;2023-02-26T11:42:54;5.27;;;1.50;;
21356;SDS011;10836;53.068;18.234;2023-02-26T11:45:24;6.33;;;1.70;;
21356;SDS011;10836;53.068;18.234;2023-02-26T11:47:56;7.07;;;1.30;;
21356;SDS011;10836;53.068;18.234;2023-02-26T11:50:28;5.90;;;1.27;;
21356;SDS011;10836;53.068;18.234;2023-02-26T11:53:03;8.97;;;1.73;;
21356;SDS011;10836;53.068;18.234;2023-02-26T11:55:37;8.93;;;2.07;;
21356;SDS011;10836;53.068;18.234;2023-02-26T11:58:20;3.97;;;1.67;;
21356;SDS011;10836;53.068;18.234;2023-02-26T12:00:52;4.20;;;1.77;;
21356;SDS011;10836;53.068;18.234;2023-02-26T12:03:22;6.17;;;1.50;;
21356;SDS011;10836;53.068;18.234;2023-02-26T12:05:52;5.07;;;1.27;;
21356;SDS011;10836;53.068;18.234;2023-02-26T12:08:28;6.07;;;1.27;;
21356;SDS011;10836;53.068;18.234;2023-02-26T12:39:30;7.67;;;1.27;;
21356;SDS011;10836;53.068;18.234;2023-02-26T12:42:10;8.70;;;1.17;;
21356;SDS011;10836;53.068;18.234;2023-02-26T12:45:07;2.90;;;1.00;;
21356;SDS011;10836;53.068;18.234;2023-02-26T12:53:10;4.63;;;1.47;;
21356;SDS011;10836;53.068;18.234;2023-02-26T13:18:58;4.80;;;1.10;;
21356;SDS011;10836;53.068;18.234;2023-02-26T13:21:38;3.87;;;1.00;;
21356;SDS011;10836;53.068;18.234;2023-02-26T13:24:11;4.13;;;1.20;;
21356;SDS011;10836;53.068;18.234;2023-02-26T13:26:46;2.67;;;0.90;;
21356;SDS011;10836;53.068;18.234;2023-02-26T13:29:15;8.37;;;1.93;;
21356;SDS011;10836;53.068;18.234;2023-02-26T13:31:47;7.10;;;1.70;;
21356;SDS011;10836;53.068;18.234;2023-02-26T13:34:18;6.10;;;1.73;;
21356;SDS011;10836;53.068;18.234;2023-02-26T13:37:02;6.30;;;2.00;;
21356;SDS011;10836;53.068;18.234;2023-02-26T13:39:34;6.77;;;1.93;;
21356;SDS011;10836;53.068;18.234;2023-02-26T13:45:00;6.83;;;2.20;;
21356;SDS011;10836;53.068;18.234;2023-02-26T13:55:50;5.10;;;2.23;;
21356;SDS011;10836;53.068;18.234;2023-02-26T14:06:21;8.80;;;2.53;;
21356;SDS011;10836;53.068;18.234;2023-02-26T14:12:00;4.93;;;1.80;;
21356;SDS011;10836;53.068;18.234;2023-02-26T14:14:35;10.77;;;2.40;;
21356;SDS011;10836;53.068;18.234;2023-02-26T14:19:43;6.10;;;1.87;;
21356;SDS011;10836;53.068;18.234;2023-02-26T14:22:35;5.70;;;2.10;;
21356;SDS011;10836;53.068;18.234;2023-02-26T14:27:35;8.53;;;2.33;;
21356;SDS011;10836;53.068;18.234;2023-02-26T14:32:44;8.17;;;2.13;;
21356;SDS011;10836;53.068;18.234;2023-02-26T14:35:22;8.40;;;2.17;;
21356;SDS011;10836;53.068;18.234;2023-02-26T14:37:59;5.87;;;2.13;;
21356;SDS011;10836;53.068;18.234;2023-02-26T14:40:29;7.27;;;2.47;;
21356;SDS011;10836;53.068;18.234;2023-02-26T14:43:02;7.37;;;2.47;;
21356;SDS011;10836;53.068;18.234;2023-02-26T14:45:36;6.43;;;2.20;;
21356;SDS011;10836;53.068;18.234;2023-02-26T14:48:07;8.10;;;2.03;;
21356;SDS011;10836;53.068;18.234;2023-02-26T14:56:27;4.60;;;1.70;;
21356;SDS011;10836;53.068;18.234;2023-02-26T15:02:12;4.23;;;1.30;;
21356;SDS011;10836;53.068;18.234;2023-02-26T15:05:00;6.03;;;1.40;;
21356;SDS011;10836;53.068;18.234;2023-02-26T15:13:15;5.93;;;2.03;;
21356;SDS011;10836;53.068;18.234;2023-02-26T15:24:04;6.07;;;1.73;;
21356;SDS011;10836;53.068;18.234;2023-02-26T15:26:33;7.67;;;2.40;;
21356;SDS011;10836;53.068;18.234;2023-02-26T15:29:03;11.93;;;1.80;;
21356;SDS011;10836;53.068;18.234;2023-02-26T15:31:38;5.67;;;2.10;;
21356;SDS011;10836;53.068;18.234;2023-02-26T15:34:11;5.17;;;1.67;;
21356;SDS011;10836;53.068;18.234;2023-02-26T15:36:50;7.03;;;1.70;;
21356;SDS011;10836;53.068;18.234;2023-02-26T15:39:21;6.30;;;1.50;;
21356;SDS011;10836;53.068;18.234;2023-02-26T15:41:49;6.17;;;1.93;;
21356;SDS011;10836;53.068;18.234;2023-02-26T15:44:22;3.87;;;1.77;;
21356;SDS011;10836;53.068;18.234;2023-02-26T15:47:00;9.53;;;1.90;;
21356;SDS011;10836;53.068;18.234;2023-02-26T15:49:29;4.63;;;1.47;;
21356;SDS011;10836;53.068;18.234;2023-02-26T15:52:00;7.17;;;1.60;;
21356;SDS011;10836;53.068;18.234;2023-02-26T15:54:32;4.40;;;1.77;;
21356;SDS011;10836;53.068;18.234;2023-02-26T15:57:05;2.73;;;1.50;;
21356;SDS011;10836;53.068;18.234;2023-02-26T15:59:34;6.03;;;2.00;;
21356;SDS011;10836;53.068;18.234;2023-02-26T16:02:10;5.90;;;1.50;;
21356;SDS011;10836;53.068;18.234;2023-02-26T16:04:39;5.03;;;1.40;;
21356;SDS011;10836;53.068;18.234;2023-02-26T16:07:08;4.93;;;1.30;;
21356;SDS011;10836;53.068;18.234;2023-02-26T16:09:41;4.57;;;1.60;;
21356;SDS011;10836;53.068;18.234;2023-02-26T16:12:13;3.07;;;1.37;;
21356;SDS011;10836;53.068;18.234;2023-02-26T16:14:49;5.37;;;1.23;;
21356;SDS011;10836;53.068;18.234;2023-02-26T16:17:26;3.90;;;1.30;;
21356;SDS011;10836;53.068;18.234;2023-02-26T16:19:58;7.80;;;1.43;;
21356;SDS011;10836;53.068;18.234;2023-02-26T16:25:07;6.13;;;1.17;;
21356;SDS011;10836;53.068;18.234;2023-02-26T16:27:41;4.37;;;1.10;;
21356;SDS011;10836;53.068;18.234;2023-02-26T16:30:13;6.73;;;1.40;;
21356;SDS011;10836;53.068;18.234;2023-02-26T16:32:44;3.00;;;1.40;;
21356;SDS011;10836;53.068;18.234;2023-02-26T16:35:20;5.83;;;1.10;;
21356;SDS011;10836;53.068;18.234;2023-02-26T16:37:50;6.60;;;1.53;;
21356;SDS011;10836;53.068;18.234;2023-02-26T16:40:29;2.10;;;1.20;;
21356;SDS011;10836;53.068;18.234;2023-02-26T16:45:49;2.63;;;0.90;;
21356;SDS011;10836;53.068;18.234;2023-02-26T16:48:23;5.33;;;1.90;;
21356;SDS011;10836;53.068;18.234;2023-02-26T16:51:15;4.60;;;1.63;;
21356;SDS011;10836;53.068;18.234;2023-02-26T16:53:44;5.43;;;1.67;;
21356;SDS011;10836;53.068;18.234;2023-02-26T16:56:16;5.47;;;1.80;;
21356;SDS011;10836;53.068;18.234;2023-02-26T16:59:00;6.77;;;1.50;;
21356;SDS011;10836;53.068;18.234;2023-02-26T17:01:28;7.47;;;1.83;;
21356;SDS011;10836;53.068;18.234;2023-02-26T17:04:02;6.93;;;1.77;;
21356;SDS011;10836;53.068;18.234;2023-02-26T17:06:29;5.47;;;2.13;;
21356;SDS011;10836;53.068;18.234;2023-02-26T17:08:57;9.07;;;2.90;;
21356;SDS011;10836;53.068;18.234;2023-02-26T17:11:26;11.47;;;4.43;;
21356;SDS011;10836;53.068;18.234;2023-02-26T17:14:42;8.53;;;3.33;;
21356;SDS011;10836;53.068;18.234;2023-02-26T17:16:54;14.40;;;5.03;;
21356;SDS011;10836;53.068;18.234;2023-02-26T17:19:21;15.93;;;5.43;;
21356;SDS011;10836;53.068;18.234;2023-02-26T17:21:49;16.83;;;5.03;;
21356;SDS011;10836;53.068;18.234;2023-02-26T17:24:20;17.17;;;6.20;;
21356;SDS011;10836;53.068;18.234;2023-02-26T17:26:52;19.83;;;6.70;;
21356;SDS011;10836;53.068;18.234;2023-02-26T17:29:22;22.73;;;8.23;;
21356;SDS011;10836;53.068;18.234;2023-02-26T17:31:55;21.87;;;8.10;;
21356;SDS011;10836;53.068;18.234;2023-02-26T17:34:23;23.70;;;9.03;;
21356;SDS011;10836;53.068;18.234;2023-02-26T17:36:55;21.63;;;7.70;;
21356;SDS011;10836;53.068;18.234;2023-02-26T17:39:23;17.73;;;6.87;;
21356;SDS011;10836;53.068;18.234;2023-02-26T17:41:49;17.27;;;7.20;;
21356;SDS011;10836;53.068;18.234;2023-02-26T17:44:17;21.87;;;7.67;;
21356;SDS011;10836;53.068;18.234;2023-02-26T17:46:45;18.60;;;7.00;;
21356;SDS011;10836;53.068;18.234;2023-02-26T17:49:12;23.97;;;8.00;;
21356;SDS011;10836;53.068;18.234;2023-02-26T17:51:39;19.23;;;6.73;;
21356;SDS011;10836;53.068;18.234;2023-02-26T17:54:06;21.30;;;6.93;;
21356;SDS011;10836;53.068;18.234;2023-02-26T17:56:33;18.57;;;6.83;;
21356;SDS011;10836;53.068;18.234;2023-02-26T17:59:01;15.60;;;6.83;;
21356;SDS011;10836;53.068;18.234;2023-02-26T18:01:29;16.53;;;5.97;;
21356;SDS011;10836;53.068;18.234;2023-02-26T18:03:57;19.23;;;7.17;;
21356;SDS011;10836;53.068;18.234;2023-02-26T18:06:26;15.63;;;6.33;;
21356;SDS011;10836;53.068;18.234;2023-02-26T18:08:56;15.40;;;6.43;;
21356;SDS011;10836;53.068;18.234;2023-02-26T18:11:23;19.10;;;6.83;;
21356;SDS011;10836;53.068;18.234;2023-02-26T18:13:52;18.20;;;6.50;;